sensor_id;sensor_type;location;lat;lon;timestamp;P1;durP1;ratioP1;P2;durP2;ratioP2
60917;SDS011;46792;38.854;-9.384;2022-12-01T00:00:09;5.22;;;4.35;;
60917;SDS011;46792;38.854;-9.384;2022-12-01T00:02:11;147.30;;;8.48;;
60917;SDS011;46792;38.854;-9.384;2022-12-01T00:04:12;20.33;;;5.13;;
60917;SDS011;46792;38.854;-9.384;2022-12-01T00:06:13;13.90;;;4.95;;
60917;SDS011;46792;38.854;-9.384;2022-12-01T00:13:17;14.90;;;5.25;;
60917;SDS011;46792;38.854;-9.384;2022-12-01T00:15:18;70.53;;;5.82;;
60917;SDS011;46792;38.854;-9.384;2022-12-01T00:17:20;17.25;;;5.53;;
60917;SDS011;46792;38.854;-9.384;2022-12-01T00:19:39;7.03;;;4.90;;
60917;SDS011;46792;38.854;-9.384;2022-12-01T00:21:40;33.20;;;5.90;;
60917;SDS011;46792;38.854;-9.384;2022-12-01T00:23:44;13.50;;;5.13;;
60917;SDS011;46792;38.854;-9.384;2022-12-01T00:25:48;36.55;;;6.55;;
60917;SDS011;46792;38.854;-9.384;2022-12-01T00:27:49;44.60;;;6.45;;
60917;SDS011;46792;38.854;-9.384;2022-12-01T00:29:51;119.43;;;7.22;;
60917;SDS011;46792;38.854;-9.384;2022-12-01T00:31:52;160.52;;;8.48;;
60917;SDS011;46792;38.854;-9.384;2022-12-01T00:33:52;12.18;;;5.40;;
60917;SDS011;46792;38.854;-9.384;2022-12-01T00:35:57;31.98;;;5.63;;
60917;SDS011;46792;38.854;-9.384;2022-12-01T00:39:59;10.98;;;4.82;;
60917;SDS011;46792;38.854;-9.384;2022-12-01T00:42:00;9.32;;;5.00;;
60917;SDS011;46792;38.854;-9.384;2022-12-01T00:44:03;5.88;;;5.28;;
60917;SDS011;46792;38.854;-9.384;2022-12-01T00:46:04;10.07;;;6.05;;
60917;SDS011;46792;38.854;-9.384;2022-12-01T00:48:05;12.90;;;6.20;;
60917;SDS011;46792;38.854;-9.384;2022-12-01T00:50:05;6.88;;;6.18;;
60917;SDS011;46792;38.854;-9.384;2022-12-01T00:52:25;6.38;;;5.70;;
60917;SDS011;46792;38.854;-9.384;2022-12-01T00:54:44;5.55;;;4.68;;
60917;SDS011;46792;38.854;-9.384;2022-12-01T00:56:45;5.05;;;4.57;;
60917;SDS011;46792;38.854;-9.384;2022-12-01T01:01:05;4.40;;;4.00;;
60917;SDS011;46792;38.854;-9.384;2022-12-01T01:03:06;3.85;;;3.45;;
60917;SDS011;46792;38.854;-9.384;2022-12-01T01:05:07;4.30;;;3.90;;
60917;SDS011;46792;38.854;-9.384;2022-12-01T01:07:08;4.60;;;3.83;;
60917;SDS011;46792;38.854;-9.384;2022-12-01T01:09:09;4.20;;;3.80;;
60917;SDS011;46792;38.854;-9.384;2022-12-01T01:11:10;4.90;;;3.78;;
60917;SDS011;46792;38.854;-9.384;2022-12-01T01:13:16;4.18;;;3.70;;
60917;SDS011;46792;38.854;-9.384;2022-12-01T01:15:17;3.88;;;3.58;;
60917;SDS011;46792;38.854;-9.384;2022-12-01T01:20:13;4.37;;;3.47;;
60917;SDS011;46792;38.854;-9.384;2022-12-01T01:22:14;4.00;;;3.60;;
60917;SDS011;46792;38.854;-9.384;2022-12-01T01:24:15;4.22;;;3.92;;
60917;SDS011;46792;38.854;-9.384;2022-12-01T01:26:19;5.40;;;4.05;;
60917;SDS011;46792;38.854;-9.384;2022-12-01T01:28:27;4.57;;;4.03;;
60917;SDS011;46792;38.854;-9.384;2022-12-01T01:30:29;4.35;;;3.30;;
60917;SDS011;46792;38.854;-9.384;2022-12-01T01:32:29;11.25;;;3.53;;
60917;SDS011;46792;38.854;-9.384;2022-12-01T01:34:30;3.80;;;3.50;;
60917;SDS011;46792;38.854;-9.384;2022-12-01T01:36:31;7.13;;;3.65;;
60917;SDS011;46792;38.854;-9.384;2022-12-01T01:38:32;16.10;;;3.30;;
60917;SDS011;46792;38.854;-9.384;2022-12-01T01:40:34;10.70;;;3.03;;
60917;SDS011;46792;38.854;-9.384;2022-12-01T01:42:42;17.58;;;3.78;;
60917;SDS011;46792;38.854;-9.384;2022-12-01T01:45:10;16.40;;;3.65;;
60917;SDS011;46792;38.854;-9.384;2022-12-01T01:47:30;13.07;;;3.38;;
60917;SDS011;46792;38.854;-9.384;2022-12-01T01:49:34;8.38;;;3.35;;
60917;SDS011;46792;38.854;-9.384;2022-12-01T01:51:42;6.13;;;3.30;;
60917;SDS011;46792;38.854;-9.384;2022-12-01T01:56:07;3.53;;;3.22;;
60917;SDS011;46792;38.854;-9.384;2022-12-01T01:58:26;4.15;;;3.42;;
60917;SDS011;46792;38.854;-9.384;2022-12-01T02:00:27;5.32;;;2.92;;
60917;SDS011;46792;38.854;-9.384;2022-12-01T02:02:46;4.13;;;3.45;;
60917;SDS011;46792;38.854;-9.384;2022-12-01T02:04:50;11.60;;;3.58;;
60917;SDS011;46792;38.854;-9.384;2022-12-01T02:06:55;4.50;;;3.00;;
60917;SDS011;46792;38.854;-9.384;2022-12-01T02:18:28;4.03;;;3.17;;
60917;SDS011;46792;38.854;-9.384;2022-12-01T02:27:07;5.03;;;2.22;;
60917;SDS011;46792;38.854;-9.384;2022-12-01T02:31:38;3.70;;;2.42;;
60917;SDS011;46792;38.854;-9.384;2022-12-01T02:41:21;2.08;;;1.70;;
60917;SDS011;46792;38.854;-9.384;2022-12-01T02:43:37;7.97;;;1.90;;
60917;SDS011;46792;38.854;-9.384;2022-12-01T02:47:45;2.40;;;1.65;;
60917;SDS011;46792;38.854;-9.384;2022-12-01T02:50:06;3.08;;;1.35;;
60917;SDS011;46792;38.854;-9.384;2022-12-01T02:52:30;1.92;;;1.83;;
60917;SDS011;46792;38.854;-9.384;2022-12-01T02:54:31;1.90;;;1.80;;
60917;SDS011;46792;38.854;-9.384;2022-12-01T02:56:32;1.58;;;1.48;;
60917;SDS011;46792;38.854;-9.384;2022-12-01T02:58:33;1.45;;;1.35;;
60917;SDS011;46792;38.854;-9.384;2022-12-01T03:00:34;1.58;;;1.48;;
60917;SDS011;46792;38.854;-9.384;2022-12-01T03:07:10;3.53;;;2.00;;
60917;SDS011;46792;38.854;-9.384;2022-12-01T03:12:04;1.85;;;1.75;;
60917;SDS011;46792;38.854;-9.384;2022-12-01T03:16:25;1.80;;;1.70;;
60917;SDS011;46792;38.854;-9.384;2022-12-01T03:18:50;2.00;;;1.90;;
60917;SDS011;46792;38.854;-9.384;2022-12-01T03:21:03;1.42;;;1.40;;
60917;SDS011;46792;38.854;-9.384;2022-12-01T03:23:13;1.73;;;1.63;;
60917;SDS011;46792;38.854;-9.384;2022-12-01T03:25:19;1.95;;;1.85;;
60917;SDS011;46792;38.854;-9.384;2022-12-01T03:27:25;2.45;;;2.25;;
60917;SDS011;46792;38.854;-9.384;2022-12-01T03:29:31;2.33;;;2.13;;
60917;SDS011;46792;38.854;-9.384;2022-12-01T03:31:39;2.58;;;2.38;;
60917;SDS011;46792;38.854;-9.384;2022-12-01T03:34:06;3.05;;;2.83;;
60917;SDS011;46792;38.854;-9.384;2022-12-01T03:36:09;5.32;;;3.30;;
60917;SDS011;46792;38.854;-9.384;2022-12-01T03:38:20;2.83;;;2.60;;
60917;SDS011;46792;38.854;-9.384;2022-12-01T03:40:24;3.70;;;2.85;;
60917;SDS011;46792;38.854;-9.384;2022-12-01T03:42:30;2.90;;;2.60;;
60917;SDS011;46792;38.854;-9.384;2022-12-01T03:44:39;3.45;;;3.15;;
60917;SDS011;46792;38.854;-9.384;2022-12-01T03:46:53;4.38;;;2.35;;
60917;SDS011;46792;38.854;-9.384;2022-12-01T03:48:57;7.15;;;2.17;;
60917;SDS011;46792;38.854;-9.384;2022-12-01T03:51:15;2.38;;;2.22;;
60917;SDS011;46792;38.854;-9.384;2022-12-01T03:53:26;3.28;;;2.55;;
60917;SDS011;46792;38.854;-9.384;2022-12-01T03:55:35;4.82;;;2.85;;
60917;SDS011;46792;38.854;-9.384;2022-12-01T03:57:42;5.40;;;2.40;;
60917;SDS011;46792;38.854;-9.384;2022-12-01T03:59:53;5.07;;;2.85;;
60917;SDS011;46792;38.854;-9.384;2022-12-01T04:01:53;3.70;;;2.80;;
60917;SDS011;46792;38.854;-9.384;2022-12-01T04:03:54;3.25;;;2.72;;
60917;SDS011;46792;38.854;-9.384;2022-12-01T04:05:55;3.60;;;2.60;;
60917;SDS011;46792;38.854;-9.384;2022-12-01T04:07:57;4.28;;;2.40;;
60917;SDS011;46792;38.854;-9.384;2022-12-01T04:09:58;4.70;;;2.13;;
60917;SDS011;46792;38.854;-9.384;2022-12-01T04:12:17;4.63;;;2.55;;
60917;SDS011;46792;38.854;-9.384;2022-12-01T04:14:31;5.43;;;3.03;;
60917;SDS011;46792;38.854;-9.384;2022-12-01T04:16:32;5.32;;;2.42;;
60917;SDS011;46792;38.854;-9.384;2022-12-01T04:18:33;2.97;;;2.35;;
60917;SDS011;46792;38.854;-9.384;2022-12-01T04:20:33;4.10;;;2.20;;
60917;SDS011;46792;38.854;-9.384;2022-12-01T04:22:34;2.97;;;2.15;;
60917;SDS011;46792;38.854;-9.384;2022-12-01T04:24:34;2.95;;;2.47;;
60917;SDS011;46792;38.854;-9.384;2022-12-01T04:26:36;2.30;;;2.15;;
60917;SDS011;46792;38.854;-9.384;2022-12-01T04:28:36;4.78;;;2.50;;
60917;SDS011;46792;38.854;-9.384;2022-12-01T04:30:37;2.40;;;2.10;;
60917;SDS011;46792;38.854;-9.384;2022-12-01T04:32:56;5.78;;;2.30;;
60917;SDS011;46792;38.854;-9.384;2022-12-01T04:34:56;3.80;;;2.30;;
60917;SDS011;46792;38.854;-9.384;2022-12-01T04:37:16;2.95;;;2.53;;
60917;SDS011;46792;38.854;-9.384;2022-12-01T04:39:17;1.92;;;1.80;;
60917;SDS011;46792;38.854;-9.384;2022-12-01T04:41:17;2.85;;;1.83;;
60917;SDS011;46792;38.854;-9.384;2022-12-01T04:43:18;2.70;;;1.95;;
60917;SDS011;46792;38.854;-9.384;2022-12-01T04:45:19;2.15;;;1.90;;
60917;SDS011;46792;38.854;-9.384;2022-12-01T04:47:19;2.22;;;1.90;;
60917;SDS011;46792;38.854;-9.384;2022-12-01T04:49:20;2.05;;;1.88;;
60917;SDS011;46792;38.854;-9.384;2022-12-01T04:51:21;4.70;;;2.22;;
60917;SDS011;46792;38.854;-9.384;2022-12-01T04:53:22;2.10;;;1.83;;
60917;SDS011;46792;38.854;-9.384;2022-12-01T04:55:23;2.20;;;2.00;;
60917;SDS011;46792;38.854;-9.384;2022-12-01T04:57:24;2.72;;;1.75;;
60917;SDS011;46792;38.854;-9.384;2022-12-01T04:59:25;1.92;;;1.83;;
60917;SDS011;46792;38.854;-9.384;2022-12-01T05:01:26;2.40;;;1.60;;
60917;SDS011;46792;38.854;-9.384;2022-12-01T05:03:26;1.65;;;1.55;;
60917;SDS011;46792;38.854;-9.384;2022-12-01T05:05:27;3.17;;;1.90;;
60917;SDS011;46792;38.854;-9.384;2022-12-01T05:07:28;3.30;;;2.15;;
60917;SDS011;46792;38.854;-9.384;2022-12-01T05:09:29;3.08;;;2.05;;
60917;SDS011;46792;38.854;-9.384;2022-12-01T05:11:29;2.08;;;1.88;;
60917;SDS011;46792;38.854;-9.384;2022-12-01T05:13:31;2.42;;;1.98;;
60917;SDS011;46792;38.854;-9.384;2022-12-01T05:15:31;3.53;;;2.38;;
60917;SDS011;46792;38.854;-9.384;2022-12-01T05:17:32;3.33;;;2.25;;
60917;SDS011;46792;38.854;-9.384;2022-12-01T05:19:32;3.50;;;2.25;;
60917;SDS011;46792;38.854;-9.384;2022-12-01T05:21:52;4.40;;;2.60;;
60917;SDS011;46792;38.854;-9.384;2022-12-01T05:23:53;4.25;;;2.78;;
60917;SDS011;46792;38.854;-9.384;2022-12-01T05:26:12;3.10;;;2.80;;
60917;SDS011;46792;38.854;-9.384;2022-12-01T05:28:12;7.22;;;3.88;;
60917;SDS011;46792;38.854;-9.384;2022-12-01T05:30:13;4.65;;;3.33;;
60917;SDS011;46792;38.854;-9.384;2022-12-01T05:32:13;6.25;;;3.97;;
60917;SDS011;46792;38.854;-9.384;2022-12-01T05:34:14;11.77;;;4.60;;
60917;SDS011;46792;38.854;-9.384;2022-12-01T05:36:15;8.20;;;4.18;;
60917;SDS011;46792;38.854;-9.384;2022-12-01T05:38:16;10.90;;;4.95;;
60917;SDS011;46792;38.854;-9.384;2022-12-01T05:40:17;8.50;;;4.95;;
60917;SDS011;46792;38.854;-9.384;2022-12-01T05:42:18;11.13;;;5.45;;
60917;SDS011;46792;38.854;-9.384;2022-12-01T05:44:18;12.13;;;5.28;;
60917;SDS011;46792;38.854;-9.384;2022-12-01T05:46:19;8.40;;;5.43;;
60917;SDS011;46792;38.854;-9.384;2022-12-01T05:48:19;10.90;;;5.47;;
60917;SDS011;46792;38.854;-9.384;2022-12-01T05:50:20;9.52;;;5.45;;
60917;SDS011;46792;38.854;-9.384;2022-12-01T05:52:21;20.95;;;6.22;;
60917;SDS011;46792;38.854;-9.384;2022-12-01T05:54:22;12.30;;;6.40;;
60917;SDS011;46792;38.854;-9.384;2022-12-01T05:56:23;14.93;;;6.38;;
60917;SDS011;46792;38.854;-9.384;2022-12-01T05:58:23;13.32;;;6.40;;
60917;SDS011;46792;38.854;-9.384;2022-12-01T06:00:24;13.88;;;6.80;;
60917;SDS011;46792;38.854;-9.384;2022-12-01T06:02:24;15.43;;;7.15;;
60917;SDS011;46792;38.854;-9.384;2022-12-01T06:04:28;13.63;;;6.15;;
60917;SDS011;46792;38.854;-9.384;2022-12-01T06:06:28;19.23;;;7.63;;
60917;SDS011;46792;38.854;-9.384;2022-12-01T06:08:29;16.02;;;6.75;;
60917;SDS011;46792;38.854;-9.384;2022-12-01T06:10:30;19.55;;;7.28;;
60917;SDS011;46792;38.854;-9.384;2022-12-01T06:12:30;15.75;;;7.50;;
60917;SDS011;46792;38.854;-9.384;2022-12-01T06:14:31;16.52;;;7.88;;
60917;SDS011;46792;38.854;-9.384;2022-12-01T06:16:32;13.38;;;7.20;;
60917;SDS011;46792;38.854;-9.384;2022-12-01T06:18:33;14.80;;;8.27;;
60917;SDS011;46792;38.854;-9.384;2022-12-01T06:20:35;16.88;;;8.52;;
60917;SDS011;46792;38.854;-9.384;2022-12-01T06:22:36;17.58;;;8.02;;
60917;SDS011;46792;38.854;-9.384;2022-12-01T06:24:55;19.13;;;9.90;;
60917;SDS011;46792;38.854;-9.384;2022-12-01T06:27:14;19.35;;;9.93;;
60917;SDS011;46792;38.854;-9.384;2022-12-01T06:29:33;21.52;;;10.10;;
60917;SDS011;46792;38.854;-9.384;2022-12-01T06:31:34;20.90;;;10.48;;
60917;SDS011;46792;38.854;-9.384;2022-12-01T06:33:34;18.27;;;10.15;;
60917;SDS011;46792;38.854;-9.384;2022-12-01T06:35:35;26.92;;;10.57;;
60917;SDS011;46792;38.854;-9.384;2022-12-01T06:37:36;20.70;;;10.50;;
60917;SDS011;46792;38.854;-9.384;2022-12-01T06:41:56;17.80;;;10.23;;
60917;SDS011;46792;38.854;-9.384;2022-12-01T06:44:15;20.60;;;10.40;;
60917;SDS011;46792;38.854;-9.384;2022-12-01T06:46:34;20.80;;;9.80;;
60917;SDS011;46792;38.854;-9.384;2022-12-01T06:48:35;23.23;;;10.88;;
60917;SDS011;46792;38.854;-9.384;2022-12-01T06:50:35;22.50;;;9.38;;
60917;SDS011;46792;38.854;-9.384;2022-12-01T06:55:14;18.08;;;8.38;;
60917;SDS011;46792;38.854;-9.384;2022-12-01T06:57:15;12.07;;;6.20;;
60917;SDS011;46792;38.854;-9.384;2022-12-01T06:59:15;9.57;;;5.63;;
60917;SDS011;46792;38.854;-9.384;2022-12-01T07:03:35;6.80;;;3.97;;
60917;SDS011;46792;38.854;-9.384;2022-12-01T07:05:37;8.82;;;4.05;;
60917;SDS011;46792;38.854;-9.384;2022-12-01T07:07:38;5.00;;;3.70;;
60917;SDS011;46792;38.854;-9.384;2022-12-01T07:09:38;5.18;;;3.53;;
60917;SDS011;46792;38.854;-9.384;2022-12-01T07:11:39;6.30;;;3.47;;
60917;SDS011;46792;38.854;-9.384;2022-12-01T07:13:40;11.48;;;3.67;;
60917;SDS011;46792;38.854;-9.384;2022-12-01T07:15:44;4.68;;;3.42;;
60917;SDS011;46792;38.854;-9.384;2022-12-01T07:17:44;5.82;;;3.75;;
60917;SDS011;46792;38.854;-9.384;2022-12-01T07:20:04;6.55;;;3.60;;
60917;SDS011;46792;38.854;-9.384;2022-12-01T07:22:23;5.78;;;2.90;;
60917;SDS011;46792;38.854;-9.384;2022-12-01T07:24:24;3.80;;;3.00;;
60917;SDS011;46792;38.854;-9.384;2022-12-01T07:26:43;4.45;;;2.95;;
60917;SDS011;46792;38.854;-9.384;2022-12-01T07:28:44;4.18;;;3.63;;
60917;SDS011;46792;38.854;-9.384;2022-12-01T07:30:45;5.45;;;3.17;;
60917;SDS011;46792;38.854;-9.384;2022-12-01T07:33:04;5.90;;;3.35;;
60917;SDS011;46792;38.854;-9.384;2022-12-01T07:35:04;9.40;;;3.25;;
60917;SDS011;46792;38.854;-9.384;2022-12-01T07:37:05;7.18;;;3.92;;
60917;SDS011;46792;38.854;-9.384;2022-12-01T07:39:06;6.50;;;3.47;;
60917;SDS011;46792;38.854;-9.384;2022-12-01T07:41:26;5.80;;;3.78;;
60917;SDS011;46792;38.854;-9.384;2022-12-01T07:43:26;5.22;;;3.90;;
60917;SDS011;46792;38.854;-9.384;2022-12-01T07:45:28;6.80;;;4.30;;
60917;SDS011;46792;38.854;-9.384;2022-12-01T07:47:28;7.18;;;4.53;;
60917;SDS011;46792;38.854;-9.384;2022-12-01T07:49:29;7.85;;;4.78;;
60917;SDS011;46792;38.854;-9.384;2022-12-01T07:51:30;7.40;;;5.00;;
60917;SDS011;46792;38.854;-9.384;2022-12-01T07:53:30;13.15;;;4.93;;
60917;SDS011;46792;38.854;-9.384;2022-12-01T07:55:49;10.55;;;4.97;;
60917;SDS011;46792;38.854;-9.384;2022-12-01T07:57:50;9.25;;;4.82;;
60917;SDS011;46792;38.854;-9.384;2022-12-01T07:59:51;8.13;;;4.50;;
60917;SDS011;46792;38.854;-9.384;2022-12-01T08:01:52;7.45;;;4.65;;
60917;SDS011;46792;38.854;-9.384;2022-12-01T08:03:53;6.63;;;4.35;;
60917;SDS011;46792;38.854;-9.384;2022-12-01T08:05:56;10.00;;;4.75;;
60917;SDS011;46792;38.854;-9.384;2022-12-01T08:10:01;8.73;;;4.72;;
60917;SDS011;46792;38.854;-9.384;2022-12-01T08:12:01;6.45;;;4.18;;
60917;SDS011;46792;38.854;-9.384;2022-12-01T08:14:02;5.95;;;4.47;;
60917;SDS011;46792;38.854;-9.384;2022-12-01T08:16:21;7.40;;;4.05;;
60917;SDS011;46792;38.854;-9.384;2022-12-01T08:18:23;5.03;;;3.90;;
60917;SDS011;46792;38.854;-9.384;2022-12-01T08:20:24;6.25;;;3.60;;
60917;SDS011;46792;38.854;-9.384;2022-12-01T08:22:24;6.25;;;3.50;;
60917;SDS011;46792;38.854;-9.384;2022-12-01T08:24:25;9.43;;;3.70;;
60917;SDS011;46792;38.854;-9.384;2022-12-01T08:26:25;7.80;;;3.40;;
60917;SDS011;46792;38.854;-9.384;2022-12-01T08:28:26;5.70;;;3.67;;
60917;SDS011;46792;38.854;-9.384;2022-12-01T08:30:28;8.77;;;3.40;;
60917;SDS011;46792;38.854;-9.384;2022-12-01T08:32:28;6.88;;;3.17;;
60917;SDS011;46792;38.854;-9.384;2022-12-01T08:34:29;5.60;;;2.90;;
60917;SDS011;46792;38.854;-9.384;2022-12-01T08:36:30;5.07;;;2.90;;
60917;SDS011;46792;38.854;-9.384;2022-12-01T08:38:30;7.57;;;3.17;;
60917;SDS011;46792;38.854;-9.384;2022-12-01T08:40:31;7.03;;;3.58;;
60917;SDS011;46792;38.854;-9.384;2022-12-01T08:42:32;5.93;;;2.90;;
60917;SDS011;46792;38.854;-9.384;2022-12-01T08:44:32;6.18;;;3.05;;
60917;SDS011;46792;38.854;-9.384;2022-12-01T08:46:33;4.05;;;2.83;;
60917;SDS011;46792;38.854;-9.384;2022-12-01T08:48:35;5.90;;;2.95;;
60917;SDS011;46792;38.854;-9.384;2022-12-01T08:50:36;5.57;;;2.92;;
60917;SDS011;46792;38.854;-9.384;2022-12-01T08:52:36;6.50;;;2.90;;
60917;SDS011;46792;38.854;-9.384;2022-12-01T08:54:37;4.57;;;2.78;;
60917;SDS011;46792;38.854;-9.384;2022-12-01T08:56:56;3.65;;;2.80;;
60917;SDS011;46792;38.854;-9.384;2022-12-01T08:58:57;8.93;;;2.85;;
60917;SDS011;46792;38.854;-9.384;2022-12-01T09:01:02;7.72;;;2.88;;
60917;SDS011;46792;38.854;-9.384;2022-12-01T09:03:04;7.05;;;2.88;;
60917;SDS011;46792;38.854;-9.384;2022-12-01T09:05:05;4.93;;;2.55;;
60917;SDS011;46792;38.854;-9.384;2022-12-01T09:07:08;6.93;;;3.00;;
60917;SDS011;46792;38.854;-9.384;2022-12-01T09:09:13;4.65;;;2.53;;
60917;SDS011;46792;38.854;-9.384;2022-12-01T09:11:16;2.83;;;2.42;;
60917;SDS011;46792;38.854;-9.384;2022-12-01T09:13:18;4.85;;;2.97;;
60917;SDS011;46792;38.854;-9.384;2022-12-01T09:15:18;4.18;;;2.63;;
60917;SDS011;46792;38.854;-9.384;2022-12-01T09:17:19;6.38;;;3.67;;
60917;SDS011;46792;38.854;-9.384;2022-12-01T09:19:20;5.63;;;2.80;;
60917;SDS011;46792;38.854;-9.384;2022-12-01T09:21:21;4.03;;;2.70;;
60917;SDS011;46792;38.854;-9.384;2022-12-01T09:23:25;4.15;;;2.85;;
60917;SDS011;46792;38.854;-9.384;2022-12-01T09:25:25;6.55;;;2.80;;
60917;SDS011;46792;38.854;-9.384;2022-12-01T09:27:26;7.43;;;3.33;;
60917;SDS011;46792;38.854;-9.384;2022-12-01T09:29:27;9.70;;;2.78;;
60917;SDS011;46792;38.854;-9.384;2022-12-01T09:31:27;4.85;;;2.80;;
60917;SDS011;46792;38.854;-9.384;2022-12-01T09:33:28;5.55;;;2.85;;
60917;SDS011;46792;38.854;-9.384;2022-12-01T09:35:29;3.40;;;2.10;;
60917;SDS011;46792;38.854;-9.384;2022-12-01T09:37:30;2.78;;;2.50;;
60917;SDS011;46792;38.854;-9.384;2022-12-01T09:44:48;3.25;;;2.30;;
60917;SDS011;46792;38.854;-9.384;2022-12-01T09:46:53;3.13;;;2.17;;
60917;SDS011;46792;38.854;-9.384;2022-12-01T09:51:55;4.15;;;2.92;;
60917;SDS011;46792;38.854;-9.384;2022-12-01T09:54:01;3.88;;;2.40;;
60917;SDS011;46792;38.854;-9.384;2022-12-01T09:56:02;2.13;;;1.90;;
60917;SDS011;46792;38.854;-9.384;2022-12-01T09:58:26;3.85;;;2.10;;
60917;SDS011;46792;38.854;-9.384;2022-12-01T10:00:41;3.05;;;2.10;;
60917;SDS011;46792;38.854;-9.384;2022-12-01T10:02:48;6.40;;;2.03;;
60917;SDS011;46792;38.854;-9.384;2022-12-01T10:04:50;3.08;;;2.08;;
60917;SDS011;46792;38.854;-9.384;2022-12-01T10:07:03;3.65;;;2.00;;
60917;SDS011;46792;38.854;-9.384;2022-12-01T10:09:33;6.72;;;2.50;;
60917;SDS011;46792;38.854;-9.384;2022-12-01T10:11:41;4.97;;;2.20;;
60917;SDS011;46792;38.854;-9.384;2022-12-01T10:13:44;3.38;;;2.08;;
60917;SDS011;46792;38.854;-9.384;2022-12-01T10:15:49;4.00;;;2.40;;
60917;SDS011;46792;38.854;-9.384;2022-12-01T10:18:00;4.68;;;2.17;;
60917;SDS011;46792;38.854;-9.384;2022-12-01T10:20:23;2.22;;;1.83;;
60917;SDS011;46792;38.854;-9.384;2022-12-01T10:22:59;4.80;;;2.30;;
60917;SDS011;46792;38.854;-9.384;2022-12-01T10:31:55;4.32;;;2.67;;
60917;SDS011;46792;38.854;-9.384;2022-12-01T10:34:02;5.38;;;2.80;;
60917;SDS011;46792;38.854;-9.384;2022-12-01T10:36:07;4.85;;;2.13;;
60917;SDS011;46792;38.854;-9.384;2022-12-01T10:38:15;5.78;;;2.17;;
60917;SDS011;46792;38.854;-9.384;2022-12-01T10:40:23;3.20;;;2.47;;
60917;SDS011;46792;38.854;-9.384;2022-12-01T10:44:35;3.45;;;2.25;;
60917;SDS011;46792;38.854;-9.384;2022-12-01T10:46:38;4.38;;;3.00;;
60917;SDS011;46792;38.854;-9.384;2022-12-01T10:48:54;2.10;;;2.00;;
60917;SDS011;46792;38.854;-9.384;2022-12-01T10:51:16;3.90;;;2.28;;
60917;SDS011;46792;38.854;-9.384;2022-12-01T10:53:37;3.47;;;2.47;;
60917;SDS011;46792;38.854;-9.384;2022-12-01T10:55:38;3.97;;;2.20;;
60917;SDS011;46792;38.854;-9.384;2022-12-01T10:57:39;2.42;;;1.75;;
60917;SDS011;46792;38.854;-9.384;2022-12-01T11:01:50;8.32;;;2.15;;
60917;SDS011;46792;38.854;-9.384;2022-12-01T11:04:20;2.95;;;1.98;;
60917;SDS011;46792;38.854;-9.384;2022-12-01T11:06:46;4.18;;;2.30;;
60917;SDS011;46792;38.854;-9.384;2022-12-01T11:08:50;4.90;;;2.90;;
60917;SDS011;46792;38.854;-9.384;2022-12-01T11:10:54;2.50;;;2.15;;
60917;SDS011;46792;38.854;-9.384;2022-12-01T11:13:40;4.93;;;2.60;;
60917;SDS011;46792;38.854;-9.384;2022-12-01T11:15:28;4.72;;;2.67;;
60917;SDS011;46792;38.854;-9.384;2022-12-01T11:17:40;4.32;;;2.28;;
60917;SDS011;46792;38.854;-9.384;2022-12-01T11:19:41;3.58;;;1.83;;
60917;SDS011;46792;38.854;-9.384;2022-12-01T11:21:49;6.22;;;2.38;;
60917;SDS011;46792;38.854;-9.384;2022-12-01T11:26:30;5.63;;;2.20;;
60917;SDS011;46792;38.854;-9.384;2022-12-01T11:28:32;4.25;;;2.10;;
60917;SDS011;46792;38.854;-9.384;2022-12-01T11:30:34;3.33;;;2.00;;
60917;SDS011;46792;38.854;-9.384;2022-12-01T11:32:36;3.15;;;2.08;;
60917;SDS011;46792;38.854;-9.384;2022-12-01T11:34:38;4.32;;;1.95;;
60917;SDS011;46792;38.854;-9.384;2022-12-01T11:36:43;4.90;;;1.80;;
60917;SDS011;46792;38.854;-9.384;2022-12-01T11:38:47;4.45;;;1.70;;
60917;SDS011;46792;38.854;-9.384;2022-12-01T11:40:52;5.25;;;1.98;;
60917;SDS011;46792;38.854;-9.384;2022-12-01T11:42:56;4.30;;;2.33;;
60917;SDS011;46792;38.854;-9.384;2022-12-01T11:47:25;2.55;;;1.58;;
60917;SDS011;46792;38.854;-9.384;2022-12-01T11:49:28;5.75;;;1.58;;
60917;SDS011;46792;38.854;-9.384;2022-12-01T11:53:40;4.28;;;1.55;;
60917;SDS011;46792;38.854;-9.384;2022-12-01T11:55:42;2.67;;;1.80;;
60917;SDS011;46792;38.854;-9.384;2022-12-01T11:57:43;4.43;;;1.90;;
60917;SDS011;46792;38.854;-9.384;2022-12-01T11:59:47;3.55;;;1.92;;
60917;SDS011;46792;38.854;-9.384;2022-12-01T12:06:35;2.63;;;1.77;;
60917;SDS011;46792;38.854;-9.384;2022-12-01T12:09:31;7.93;;;2.30;;
60917;SDS011;46792;38.854;-9.384;2022-12-01T12:27:48;2.67;;;1.52;;
60917;SDS011;46792;38.854;-9.384;2022-12-01T12:32:30;5.00;;;1.67;;
60917;SDS011;46792;38.854;-9.384;2022-12-01T12:41:55;4.32;;;1.73;;
60917;SDS011;46792;38.854;-9.384;2022-12-01T12:46:18;3.35;;;1.65;;
60917;SDS011;46792;38.854;-9.384;2022-12-01T12:51:20;4.57;;;1.95;;
60917;SDS011;46792;38.854;-9.384;2022-12-01T12:53:30;5.15;;;1.50;;
60917;SDS011;46792;38.854;-9.384;2022-12-01T12:55:36;5.32;;;2.03;;
60917;SDS011;46792;38.854;-9.384;2022-12-01T12:57:54;2.13;;;1.55;;
60917;SDS011;46792;38.854;-9.384;2022-12-01T13:00:04;3.20;;;1.52;;
60917;SDS011;46792;38.854;-9.384;2022-12-01T13:02:13;2.35;;;1.30;;
60917;SDS011;46792;38.854;-9.384;2022-12-01T13:04:20;2.78;;;1.70;;
60917;SDS011;46792;38.854;-9.384;2022-12-01T13:06:29;2.80;;;1.40;;
60917;SDS011;46792;38.854;-9.384;2022-12-01T13:11:43;2.75;;;1.60;;
60917;SDS011;46792;38.854;-9.384;2022-12-01T13:16:00;3.90;;;1.77;;
60917;SDS011;46792;38.854;-9.384;2022-12-01T13:23:08;1.30;;;1.20;;
60917;SDS011;46792;38.854;-9.384;2022-12-01T13:25:33;2.30;;;1.63;;
60917;SDS011;46792;38.854;-9.384;2022-12-01T13:27:53;2.67;;;1.67;;
60917;SDS011;46792;38.854;-9.384;2022-12-01T13:29:55;4.95;;;1.42;;
60917;SDS011;46792;38.854;-9.384;2022-12-01T13:31:57;3.47;;;1.60;;
60917;SDS011;46792;38.854;-9.384;2022-12-01T13:34:01;1.83;;;1.23;;
60917;SDS011;46792;38.854;-9.384;2022-12-01T13:36:10;7.13;;;1.60;;
60917;SDS011;46792;38.854;-9.384;2022-12-01T13:40:28;1.92;;;1.20;;
60917;SDS011;46792;38.854;-9.384;2022-12-01T13:42:30;3.05;;;1.40;;
60917;SDS011;46792;38.854;-9.384;2022-12-01T13:52:49;1.63;;;1.48;;
60917;SDS011;46792;38.854;-9.384;2022-12-01T14:02:39;3.08;;;1.83;;
60917;SDS011;46792;38.854;-9.384;2022-12-01T14:04:39;5.32;;;3.25;;
60917;SDS011;46792;38.854;-9.384;2022-12-01T14:06:47;3.15;;;1.45;;
60917;SDS011;46792;38.854;-9.384;2022-12-01T14:08:49;3.58;;;1.38;;
60917;SDS011;46792;38.854;-9.384;2022-12-01T14:11:07;3.25;;;1.77;;
60917;SDS011;46792;38.854;-9.384;2022-12-01T14:13:23;1.90;;;1.65;;
60917;SDS011;46792;38.854;-9.384;2022-12-01T14:15:34;3.55;;;1.60;;
60917;SDS011;46792;38.854;-9.384;2022-12-01T14:17:41;3.58;;;1.58;;
60917;SDS011;46792;38.854;-9.384;2022-12-01T14:22:32;3.55;;;1.60;;
60917;SDS011;46792;38.854;-9.384;2022-12-01T14:24:37;2.85;;;1.50;;
60917;SDS011;46792;38.854;-9.384;2022-12-01T14:26:42;2.63;;;1.60;;
60917;SDS011;46792;38.854;-9.384;2022-12-01T14:35:32;7.63;;;1.67;;
60917;SDS011;46792;38.854;-9.384;2022-12-01T14:37:34;5.47;;;1.65;;
60917;SDS011;46792;38.854;-9.384;2022-12-01T14:50:15;3.08;;;1.83;;
60917;SDS011;46792;38.854;-9.384;2022-12-01T14:55:38;3.15;;;1.98;;
60917;SDS011;46792;38.854;-9.384;2022-12-01T14:57:47;2.97;;;1.60;;
60917;SDS011;46792;38.854;-9.384;2022-12-01T15:04:16;7.35;;;1.80;;
60917;SDS011;46792;38.854;-9.384;2022-12-01T15:06:17;4.10;;;2.13;;
60917;SDS011;46792;38.854;-9.384;2022-12-01T15:08:23;2.03;;;1.63;;
60917;SDS011;46792;38.854;-9.384;2022-12-01T15:10:27;3.10;;;1.48;;
60917;SDS011;46792;38.854;-9.384;2022-12-01T15:12:34;4.32;;;2.10;;
60917;SDS011;46792;38.854;-9.384;2022-12-01T15:14:52;3.78;;;1.52;;
60917;SDS011;46792;38.854;-9.384;2022-12-01T15:16:53;5.80;;;2.10;;
60917;SDS011;46792;38.854;-9.384;2022-12-01T15:18:54;2.35;;;1.80;;
60917;SDS011;46792;38.854;-9.384;2022-12-01T15:20:56;5.35;;;1.88;;